createdAt,value
2023-02-27T00:01:56.511Z,60.10
2023-02-27T00:04:25.758Z,60.20
2023-02-27T00:06:55.060Z,60.40
2023-02-27T00:09:24.446Z,60.60
2023-02-27T00:11:53.668Z,60.70
2023-02-27T00:14:22.916Z,60.70
2023-02-27T00:16:52.276Z,60.80
2023-02-27T00:19:21.881Z,60.80
2023-02-27T00:21:51.362Z,61.10
2023-02-27T00:24:22.443Z,61.20
2023-02-27T00:26:51.701Z,61.30
2023-02-27T00:29:20.989Z,61.20
2023-02-27T00:31:54.484Z,61.20
2023-02-27T00:34:23.915Z,61.30
2023-02-27T00:36:55.731Z,61.30
2023-02-27T00:39:26.770Z,61.30
2023-02-27T00:41:55.996Z,61.60
2023-02-27T00:44:25.352Z,61.70
2023-02-27T00:46:54.696Z,61.70
2023-02-27T00:49:25.467Z,61.70
2023-02-27T00:51:57.303Z,61.70
2023-02-27T00:54:26.692Z,61.80
2023-02-27T00:56:55.887Z,61.80
2023-02-27T00:59:25.271Z,61.80
2023-02-27T01:01:55.512Z,61.80
2023-02-27T01:04:24.934Z,61.90
2023-02-27T01:06:55.910Z,61.80
2023-02-27T01:09:25.263Z,61.60
2023-02-27T01:11:54.568Z,61.60
2023-02-27T01:14:24.290Z,61.70
2023-02-27T01:16:53.777Z,61.80
2023-02-27T01:19:23.160Z,61.90
2023-02-27T01:21:52.922Z,61.90
2023-02-27T01:24:23.478Z,62.10
2023-02-27T01:26:52.869Z,62.10
2023-02-27T01:29:22.359Z,62.10
2023-02-27T01:31:51.682Z,62.30
2023-02-27T01:34:21.120Z,62.40
2023-02-27T01:36:50.428Z,62.30
2023-02-27T01:39:19.741Z,62.50
2023-02-27T01:41:49.407Z,62.60
2023-02-27T01:44:18.752Z,62.70
2023-02-27T01:46:47.992Z,62.70
2023-02-27T01:49:34.481Z,62.80
2023-02-27T01:52:07.543Z,62.80
2023-02-27T01:54:41.926Z,62.70
2023-02-27T01:57:11.512Z,62.70
2023-02-27T01:59:43.330Z,62.80
2023-02-27T02:02:23.633Z,63.00
2023-02-27T02:04:56.309Z,63.30
2023-02-27T02:07:26.031Z,63.40
2023-02-27T02:09:59.973Z,63.30
2023-02-27T02:12:38.167Z,63.30
2023-02-27T02:15:08.337Z,63.30
2023-02-27T02:17:50.232Z,63.60
2023-02-27T02:21:19.555Z,63.90
2023-02-27T02:24:26.603Z,64.10
2023-02-27T02:27:03.979Z,64.40
2023-02-27T02:30:11.386Z,64.80
2023-02-27T02:32:44.087Z,65.00
2023-02-27T02:35:33.313Z,65.10
2023-02-27T02:38:20.976Z,65.20
2023-02-27T02:41:20.496Z,65.30
2023-02-27T02:44:33.418Z,65.40
2023-02-27T02:47:42.904Z,65.60
2023-02-27T02:50:22.382Z,65.80
2023-02-27T02:53:33.735Z,66.00
2023-02-27T02:56:46.543Z,66.10
2023-02-27T02:59:35.903Z,66.20
2023-02-27T03:02:13.876Z,66.40
2023-02-27T03:04:59.139Z,66.50
2023-02-27T03:07:44.455Z,66.70
2023-02-27T03:10:41.725Z,66.90
2023-02-27T03:13:29.431Z,67.10
2023-02-27T03:16:27.925Z,67.10
2023-02-27T03:19:16.597Z,67.30
2023-02-27T03:22:09.047Z,67.40
2023-02-27T03:24:47.220Z,67.50
2023-02-27T03:27:19.192Z,67.40
2023-02-27T03:30:23.675Z,67.50
2023-02-27T03:33:15.717Z,67.40
2023-02-27T03:36:08.242Z,67.40
2023-02-27T03:39:00.322Z,67.40
2023-02-27T03:41:47.802Z,67.60
2023-02-27T03:45:28.296Z,67.70
2023-02-27T03:47:58.449Z,67.70
2023-02-27T03:50:27.999Z,67.70
2023-02-27T03:52:57.762Z,67.50
2023-02-27T03:55:38.032Z,67.30
2023-02-27T03:58:07.528Z,67.40
2023-02-27T04:00:37.188Z,67.40
2023-02-27T04:03:06.571Z,67.50
2023-02-27T04:05:36.012Z,67.70
2023-02-27T04:08:16.117Z,67.80
2023-02-27T04:10:48.049Z,68.10
2023-02-27T04:13:26.064Z,68.50
2023-02-27T04:16:52.003Z,68.80
2023-02-27T04:19:47.638Z,69.00
2023-02-27T04:22:44.515Z,69.30
2023-02-27T04:25:39.212Z,69.30
2023-02-27T04:28:50.705Z,69.30
2023-02-27T04:31:33.174Z,69.40
2023-02-27T04:34:29.695Z,69.50
2023-02-27T04:37:09.917Z,69.60
2023-02-27T04:39:52.004Z,69.80
2023-02-27T04:42:29.157Z,70.10
2023-02-27T04:45:02.725Z,70.10
2023-02-27T04:47:45.909Z,70.10
2023-02-27T04:50:32.455Z,70.10
2023-02-27T04:53:45.098Z,70.40
2023-02-27T04:56:48.271Z,70.60
2023-02-27T04:59:29.996Z,70.70
2023-02-27T05:02:18.054Z,70.70
2023-02-27T05:04:50.222Z,70.80
2023-02-27T05:07:26.882Z,71.00
2023-02-27T05:10:04.510Z,71.20
2023-02-27T05:13:02.411Z,71.20
2023-02-27T05:15:46.974Z,71.40
2023-02-27T05:18:21.012Z,71.20
2023-02-27T05:20:57.716Z,71.30
2023-02-27T05:24:17.709Z,71.50
2023-02-27T05:26:59.098Z,71.70
2023-02-27T05:29:31.279Z,71.50
2023-02-27T05:32:22.355Z,71.40
2023-02-27T05:35:18.377Z,71.40
2023-02-27T05:38:14.650Z,71.30
2023-02-27T05:41:00.511Z,71.40
2023-02-27T05:43:37.017Z,71.50
2023-02-27T05:46:18.167Z,71.50
2023-02-27T05:49:03.026Z,71.60
2023-02-27T05:51:37.432Z,71.50
2023-02-27T05:54:29.415Z,71.40
2023-02-27T05:57:02.055Z,71.50
2023-02-27T05:59:44.144Z,71.60
2023-02-27T06:02:13.759Z,71.50
2023-02-27T06:04:43.116Z,71.40
2023-02-27T06:07:14.923Z,71.40
2023-02-27T06:09:45.514Z,71.20
2023-02-27T06:12:14.764Z,71.30
2023-02-27T06:14:44.005Z,71.20
2023-02-27T06:17:13.434Z,71.10
2023-02-27T06:19:42.672Z,71.00
2023-02-27T06:22:11.976Z,71.00
2023-02-27T06:24:41.277Z,70.90
2023-02-27T06:27:10.692Z,70.80
2023-02-27T06:29:39.953Z,70.90
2023-02-27T06:32:09.272Z,70.70
2023-02-27T06:34:38.544Z,70.60
2023-02-27T06:37:07.788Z,70.70
2023-02-27T06:39:37.695Z,70.70
2023-02-27T06:42:06.991Z,70.60
2023-02-27T06:44:36.282Z,70.70
2023-02-27T06:47:05.679Z,70.70
2023-02-27T06:49:34.916Z,70.50
2023-02-27T06:52:04.116Z,70.40
2023-02-27T06:54:34.036Z,70.10
2023-02-27T06:57:03.339Z,69.80
2023-02-27T06:59:32.638Z,69.50
2023-02-27T07:02:01.911Z,69.10
2023-02-27T07:04:31.232Z,68.60
2023-02-27T07:07:35.850Z,68.10
2023-02-27T07:09:49.902Z,67.70
2023-02-27T07:12:19.186Z,67.50
2023-02-27T07:14:48.503Z,67.30
2023-02-27T07:17:17.813Z,66.90
2023-02-27T07:19:47.121Z,66.50
2023-02-27T07:22:16.532Z,66.20
2023-02-27T07:24:45.779Z,66.10
2023-02-27T07:27:15.155Z,66.00
2023-02-27T07:29:44.412Z,66.00
2023-02-27T07:32:13.694Z,65.70
2023-02-27T07:34:43.312Z,65.50
2023-02-27T07:37:13.068Z,65.20
2023-02-27T07:39:42.356Z,65.00
2023-02-27T07:42:12.404Z,64.80
2023-02-27T07:44:42.359Z,64.70
2023-02-27T07:47:12.746Z,64.40
2023-02-27T07:49:41.998Z,64.00
2023-02-27T07:52:11.614Z,63.90
2023-02-27T07:54:40.905Z,63.30
2023-02-27T07:57:10.233Z,62.80
2023-02-27T07:59:39.512Z,62.50
2023-02-27T08:02:12.133Z,62.20
2023-02-27T08:04:41.699Z,61.70
2023-02-27T08:07:10.969Z,61.20
2023-02-27T08:09:40.233Z,60.90
2023-02-27T08:12:09.498Z,60.30
2023-02-27T08:14:38.951Z,60.00
2023-02-27T08:17:08.779Z,59.80
2023-02-27T08:19:38.050Z,59.50
2023-02-27T08:22:07.771Z,59.30
2023-02-27T08:24:37.135Z,58.90
2023-02-27T08:27:07.857Z,58.40
2023-02-27T08:29:37.228Z,57.90
2023-02-27T08:32:07.699Z,57.60
2023-02-27T08:34:37.138Z,57.40
2023-02-27T08:37:06.487Z,56.80
2023-02-27T08:39:35.753Z,56.30
2023-02-27T08:42:05.129Z,55.90
2023-02-27T08:44:34.572Z,55.50
2023-02-27T08:47:03.986Z,55.30
2023-02-27T08:49:33.310Z,55.00
2023-02-27T08:52:04.428Z,54.70
2023-02-27T08:54:33.900Z,54.00
2023-02-27T08:57:04.274Z,53.70
2023-02-27T08:59:33.627Z,53.30
2023-02-27T09:02:02.916Z,52.80
2023-02-27T09:04:32.467Z,52.00
2023-02-27T09:07:02.277Z,51.40
2023-02-27T09:09:31.942Z,50.70
2023-02-27T09:12:01.159Z,50.60
2023-02-27T09:14:30.593Z,50.30
2023-02-27T09:16:59.883Z,49.90
2023-02-27T09:19:29.339Z,49.40
2023-02-27T09:21:58.810Z,48.90
2023-02-27T09:24:28.289Z,48.60
2023-02-27T09:26:57.547Z,48.20
2023-02-27T09:29:27.628Z,48.00
2023-02-27T09:31:57.059Z,47.70
2023-02-27T09:34:26.900Z,47.30
2023-02-27T09:37:00.268Z,47.00
2023-02-27T09:39:30.292Z,46.70
2023-02-27T09:42:20.728Z,46.40
2023-02-27T09:44:57.074Z,46.30
2023-02-27T09:47:42.605Z,46.40
2023-02-27T09:50:43.767Z,46.10
2023-02-27T09:53:29.907Z,45.90
2023-02-27T09:56:17.511Z,46.10
2023-02-27T09:59:13.956Z,45.60
2023-02-27T10:02:35.297Z,45.70
2023-02-27T10:05:29.203Z,45.40
2023-02-27T10:08:30.632Z,45.40
2023-02-27T10:11:12.147Z,45.20
2023-02-27T10:14:10.362Z,44.80
2023-02-27T10:16:39.813Z,45.00
2023-02-27T10:19:24.301Z,45.10
2023-02-27T10:21:56.578Z,45.20
2023-02-27T10:24:37.176Z,45.30
2023-02-27T10:27:16.008Z,44.70
2023-02-27T10:29:47.398Z,44.20
2023-02-27T10:32:31.507Z,44.00
2023-02-27T10:35:38.350Z,44.00
2023-02-27T10:38:34.399Z,43.80
2023-02-27T10:41:05.756Z,43.50
2023-02-27T10:43:34.999Z,43.60
2023-02-27T10:46:20.889Z,43.50
2023-02-27T10:48:51.182Z,43.40
2023-02-27T10:51:31.197Z,43.10
2023-02-27T10:54:19.450Z,43.30
2023-02-27T10:56:55.273Z,43.10
2023-02-27T10:59:29.475Z,42.90
2023-02-27T11:02:03.685Z,42.70
2023-02-27T11:04:40.475Z,42.50
2023-02-27T11:07:18.500Z,42.20
2023-02-27T11:10:04.541Z,42.20
2023-02-27T11:12:35.302Z,42.30
2023-02-27T11:15:25.678Z,41.80
2023-02-27T11:17:55.244Z,41.50
2023-02-27T11:20:30.491Z,41.30
2023-02-27T11:23:07.780Z,41.10
2023-02-27T11:25:37.186Z,40.70
2023-02-27T11:28:30.836Z,40.90
2023-02-27T11:31:16.884Z,41.00
2023-02-27T11:33:57.007Z,40.80
2023-02-27T11:36:48.720Z,40.60
2023-02-27T11:39:37.491Z,40.50
2023-02-27T11:42:18.081Z,40.60
2023-02-27T11:45:02.795Z,40.30
2023-02-27T11:47:41.073Z,39.90
2023-02-27T11:50:13.503Z,39.90
2023-02-27T11:52:55.454Z,39.90
2023-02-27T11:55:30.441Z,39.80
2023-02-27T11:58:13.381Z,39.80
2023-02-27T12:01:07.280Z,39.90
2023-02-27T12:04:13.758Z,39.50
2023-02-27T12:06:55.584Z,39.60
2023-02-27T12:10:13.249Z,39.70
2023-02-27T12:13:15.013Z,39.60
2023-02-27T12:16:09.290Z,39.40
2023-02-27T12:18:57.817Z,39.10
2023-02-27T12:21:59.124Z,39.00
2023-02-27T12:24:45.616Z,38.90
2023-02-27T12:27:32.449Z,38.90
2023-02-27T12:30:21.261Z,38.60
2023-02-27T12:33:03.744Z,38.40
2023-02-27T12:35:33.358Z,38.30
2023-02-27T12:38:05.234Z,38.20
2023-02-27T12:40:51.754Z,38.10
2023-02-27T12:43:46.264Z,38.20
2023-02-27T12:46:18.582Z,38.00
2023-02-27T12:49:12.350Z,38.10
2023-02-27T12:52:29.739Z,37.80
2023-02-27T12:55:27.666Z,37.70
2023-02-27T12:58:23.061Z,37.40
2023-02-27T13:01:15.355Z,36.90
2023-02-27T13:03:54.623Z,36.50
2023-02-27T13:06:50.364Z,36.10
2023-02-27T13:09:28.492Z,35.60
2023-02-27T13:12:38.141Z,35.10
2023-02-27T13:15:41.018Z,34.80
2023-02-27T13:18:31.041Z,34.90
2023-02-27T13:21:15.087Z,35.10
2023-02-27T13:24:14.895Z,35.30
2023-02-27T13:26:53.819Z,35.50
2023-02-27T13:29:29.927Z,35.50
2023-02-27T13:32:32.716Z,35.30
2023-02-27T13:35:24.087Z,35.20
2023-02-27T13:38:05.295Z,35.20
2023-02-27T13:40:41.691Z,35.10
2023-02-27T13:43:46.478Z,35.20
2023-02-27T13:46:32.173Z,35.20
2023-02-27T13:49:20.096Z,35.30
2023-02-27T13:51:59.915Z,35.40
2023-02-27T13:54:40.518Z,35.20
2023-02-27T13:57:31.501Z,34.80
2023-02-27T14:00:24.702Z,34.20
2023-02-27T14:03:00.983Z,33.90
2023-02-27T14:05:46.971Z,33.40
2023-02-27T14:08:34.159Z,33.20
2023-02-27T14:11:27.883Z,33.80
2023-02-27T14:14:03.524Z,34.50
2023-02-27T14:16:41.761Z,34.80
2023-02-27T14:19:19.638Z,34.90
2023-02-27T14:21:58.731Z,35.10
2023-02-27T14:24:32.015Z,35.10
2023-02-27T14:27:03.680Z,35.30
2023-02-27T14:29:35.232Z,35.30
2023-02-27T14:32:09.278Z,35.30
2023-02-27T14:34:41.439Z,35.40
2023-02-27T14:37:23.445Z,35.40
2023-02-27T14:39:55.213Z,35.50
2023-02-27T14:42:53.476Z,35.60
2023-02-27T14:45:25.170Z,35.70
2023-02-27T14:47:57.379Z,36.10
2023-02-27T14:50:34.278Z,36.30
2023-02-27T14:53:06.500Z,36.60
2023-02-27T14:55:37.859Z,36.80
2023-02-27T14:58:15.874Z,37.00
2023-02-27T15:00:58.396Z,37.20
2023-02-27T15:03:52.883Z,37.40
2023-02-27T15:06:48.657Z,37.60
2023-02-27T15:09:47.969Z,37.70
2023-02-27T15:12:22.920Z,37.90
2023-02-27T15:15:02.700Z,38.10
2023-02-27T15:17:46.210Z,38.30
2023-02-27T15:20:32.923Z,38.20
2023-02-27T15:23:26.718Z,38.50
2023-02-27T15:25:59.178Z,39.00
2023-02-27T15:28:37.299Z,39.40
2023-02-27T15:31:12.770Z,39.70
2023-02-27T15:33:43.803Z,39.90
2023-02-27T15:36:54.889Z,40.10
2023-02-27T15:39:26.445Z,40.80
2023-02-27T15:42:04.008Z,41.00
2023-02-27T15:44:45.859Z,41.90
2023-02-27T15:47:34.276Z,41.50
2023-02-27T15:50:18.833Z,42.10
2023-02-27T15:53:14.949Z,42.60
2023-02-27T15:55:58.986Z,43.00
2023-02-27T15:58:33.145Z,43.40
2023-02-27T16:01:13.839Z,43.90
2023-02-27T16:03:48.299Z,44.40
2023-02-27T16:06:30.704Z,45.00
2023-02-27T16:09:16.492Z,45.50
2023-02-27T16:11:46.080Z,46.00
2023-02-27T16:14:41.161Z,46.30
2023-02-27T16:17:32.894Z,46.90
2023-02-27T16:20:38.635Z,47.30
2023-02-27T16:23:24.133Z,47.50
2023-02-27T16:26:06.520Z,47.80
2023-02-27T16:28:51.952Z,48.20
2023-02-27T16:31:26.345Z,48.40
2023-02-27T16:34:00.474Z,48.60
2023-02-27T16:36:32.520Z,48.80
2023-02-27T16:39:01.901Z,49.00
2023-02-27T16:41:31.232Z,49.20
2023-02-27T16:44:00.616Z,49.50
2023-02-27T16:46:31.101Z,49.60
2023-02-27T16:49:14.170Z,49.80
2023-02-27T16:51:49.198Z,50.00
2023-02-27T16:54:19.555Z,50.20
2023-02-27T16:56:51.013Z,50.30
2023-02-27T16:59:27.330Z,50.60
2023-02-27T17:01:58.888Z,50.70
2023-02-27T17:04:30.102Z,50.80
2023-02-27T17:07:01.853Z,51.00
2023-02-27T17:09:31.195Z,51.10
2023-02-27T17:12:00.519Z,51.20
2023-02-27T17:14:29.752Z,51.40
2023-02-27T17:17:02.179Z,51.50
2023-02-27T17:19:31.560Z,51.40
2023-02-27T17:22:00.988Z,51.50
2023-02-27T17:24:30.450Z,51.50
2023-02-27T17:26:59.792Z,51.50
2023-02-27T17:29:29.193Z,51.60
2023-02-27T17:31:58.627Z,51.80
2023-02-27T17:34:28.080Z,52.00
2023-02-27T17:36:57.356Z,52.10
2023-02-27T17:39:26.684Z,52.30
2023-02-27T17:41:56.086Z,52.50
2023-02-27T17:44:26.330Z,52.70
2023-02-27T17:46:55.818Z,53.00
2023-02-27T17:49:25.235Z,53.10
2023-02-27T17:51:54.506Z,53.30
2023-02-27T17:54:23.769Z,53.40
2023-02-27T17:56:53.009Z,53.60
2023-02-27T17:59:22.369Z,53.80
2023-02-27T18:01:53.417Z,53.80
2023-02-27T18:04:23.979Z,54.10
2023-02-27T18:06:53.567Z,54.40
2023-02-27T18:09:22.824Z,54.50
2023-02-27T18:11:52.121Z,54.50
2023-02-27T18:14:21.511Z,54.40
2023-02-27T18:16:51.889Z,54.30
2023-02-27T18:19:21.373Z,54.30
2023-02-27T18:21:51.056Z,54.60
2023-02-27T18:24:20.506Z,54.50
2023-02-27T18:26:49.939Z,54.40
2023-02-27T18:29:19.274Z,54.30
2023-02-27T18:31:53.868Z,54.30
2023-02-27T18:34:24.554Z,54.40
2023-02-27T18:36:53.900Z,54.50
2023-02-27T18:39:23.902Z,54.80
2023-02-27T18:41:53.206Z,55.20
2023-02-27T18:44:22.439Z,55.40
2023-02-27T18:46:51.900Z,55.60
2023-02-27T18:49:21.273Z,55.90
2023-02-27T18:51:50.658Z,56.20
2023-02-27T18:54:20.047Z,56.40
2023-02-27T18:56:51.927Z,56.60
2023-02-27T18:59:21.237Z,56.90
2023-02-27T19:01:50.532Z,57.20
2023-02-27T19:04:19.826Z,57.50
2023-02-27T19:06:49.175Z,57.70
2023-02-27T19:09:20.414Z,58.00
2023-02-27T19:11:50.970Z,58.20
2023-02-27T19:14:20.255Z,58.20
2023-02-27T19:16:50.922Z,58.20
2023-02-27T19:19:20.224Z,58.30
2023-02-27T19:21:49.572Z,58.40
2023-02-27T19:24:19.012Z,58.50
2023-02-27T19:26:48.936Z,58.70
2023-02-27T19:29:18.373Z,58.90
2023-02-27T19:31:47.742Z,59.10
2023-02-27T19:34:17.085Z,59.20
2023-02-27T19:36:46.334Z,59.30
2023-02-27T19:39:15.763Z,59.70
2023-02-27T19:41:45.093Z,60.00
2023-02-27T19:44:14.563Z,60.20
2023-02-27T19:46:46.451Z,60.40
2023-02-27T19:49:15.764Z,60.70
2023-02-27T19:51:45.056Z,60.90
2023-02-27T19:54:16.050Z,61.60
2023-02-27T19:56:45.476Z,61.50
2023-02-27T19:59:14.873Z,61.60
2023-02-27T20:01:44.277Z,61.80
2023-02-27T20:04:14.022Z,62.00
2023-02-27T20:06:46.686Z,62.20
2023-02-27T20:09:18.143Z,62.40
2023-02-27T20:11:53.723Z,62.40
2023-02-27T20:14:23.928Z,62.50
2023-02-27T20:16:54.307Z,62.50
2023-02-27T20:19:24.282Z,62.70
2023-02-27T20:21:54.328Z,62.80
2023-02-27T20:24:24.561Z,62.90
2023-02-27T20:26:54.270Z,63.00
2023-02-27T20:29:25.744Z,63.10
2023-02-27T20:31:57.254Z,63.30
2023-02-27T20:34:27.085Z,63.40
2023-02-27T20:36:57.711Z,63.90
2023-02-27T20:39:28.157Z,64.00
2023-02-27T20:41:57.505Z,64.10
2023-02-27T20:44:26.822Z,64.40
2023-02-27T20:46:56.150Z,64.60
2023-02-27T20:49:26.103Z,64.80
2023-02-27T20:51:55.434Z,64.80
2023-02-27T20:54:24.839Z,65.00
2023-02-27T20:56:56.640Z,65.30
2023-02-27T20:59:26.408Z,65.30
2023-02-27T21:01:56.364Z,65.30
2023-02-27T21:04:43.287Z,65.40
2023-02-27T21:07:24.235Z,65.60
2023-02-27T21:09:53.555Z,65.70
2023-02-27T21:12:22.844Z,65.80
2023-02-27T21:14:52.315Z,66.00
2023-02-27T21:17:23.293Z,66.40
2023-02-27T21:19:52.580Z,66.30
2023-02-27T21:22:21.920Z,66.50
2023-02-27T21:24:52.492Z,66.60
2023-02-27T21:27:21.893Z,66.50
2023-02-27T21:29:51.318Z,66.60
2023-02-27T21:32:20.656Z,66.80
2023-02-27T21:34:49.913Z,66.90
2023-02-27T21:37:19.327Z,67.00
2023-02-27T21:39:52.475Z,67.10
2023-02-27T21:42:22.233Z,67.20
2023-02-27T21:44:51.516Z,67.40
2023-02-27T21:47:20.891Z,67.50
2023-02-27T21:49:51.449Z,67.70
2023-02-27T21:52:20.696Z,67.70
2023-02-27T21:54:50.588Z,67.80
2023-02-27T21:57:21.678Z,68.00
2023-02-27T21:59:51.006Z,68.00
2023-02-27T22:02:20.286Z,68.10
2023-02-27T22:04:49.549Z,68.30
2023-02-27T22:07:18.752Z,68.50
2023-02-27T22:09:49.961Z,68.60
2023-02-27T22:12:19.402Z,68.90
2023-02-27T22:14:49.786Z,69.00
2023-02-27T22:17:19.047Z,69.20
2023-02-27T22:19:48.512Z,69.40
2023-02-27T22:22:17.858Z,69.60
2023-02-27T22:24:47.471Z,69.70
2023-02-27T22:27:16.789Z,69.80
2023-02-27T22:29:46.037Z,69.80
2023-02-27T22:32:15.395Z,69.90
2023-02-27T22:34:44.680Z,70.00
2023-02-27T22:37:16.168Z,70.10
2023-02-27T22:39:45.521Z,70.30
2023-02-27T22:42:14.821Z,70.30
2023-02-27T22:44:44.210Z,70.40
2023-02-27T22:47:13.482Z,70.70
2023-02-27T22:49:42.807Z,70.90
2023-02-27T22:52:12.035Z,71.10
2023-02-27T22:54:41.340Z,71.30
2023-02-27T22:57:10.744Z,71.30
2023-02-27T22:59:40.128Z,71.50
2023-02-27T23:02:10.314Z,71.50
2023-02-27T23:04:39.606Z,71.50
2023-02-27T23:07:09.058Z,71.50
2023-02-27T23:09:38.312Z,71.60
2023-02-27T23:12:07.812Z,71.80
2023-02-27T23:14:37.176Z,71.90
2023-02-27T23:17:06.498Z,72.10
2023-02-27T23:19:36.576Z,72.20
2023-02-27T23:22:05.912Z,72.30
2023-02-27T23:24:35.239Z,72.90
2023-02-27T23:27:19.617Z,72.20
2023-02-27T23:29:54.263Z,72.30
2023-02-27T23:32:23.581Z,72.30
2023-02-27T23:34:53.027Z,72.40
2023-02-27T23:37:22.275Z,72.60
2023-02-27T23:39:51.585Z,72.60
2023-02-27T23:42:20.807Z,72.70
2023-02-27T23:44:50.057Z,72.80
2023-02-27T23:47:37.696Z,72.90
2023-02-27T23:50:07.832Z,73.00
2023-02-27T23:52:37.261Z,73.10
2023-02-27T23:55:07.421Z,72.90
2023-02-27T23:57:36.875Z,73.10
